createdAt,value
2022-09-04T00:01:17.999Z,99.90
2022-09-04T00:03:51.782Z,99.90
2022-09-04T00:06:24.873Z,99.90
2022-09-04T00:09:04.634Z,99.90
2022-09-04T00:11:47.568Z,99.90
2022-09-04T00:14:19.480Z,99.90
2022-09-04T00:16:55.822Z,99.90
2022-09-04T00:19:32.117Z,99.90
2022-09-04T00:22:01.745Z,99.90
2022-09-04T00:24:33.273Z,99.90
2022-09-04T00:27:08.990Z,99.90
2022-09-04T00:29:45.138Z,99.90
2022-09-04T00:32:25.401Z,99.90
2022-09-04T00:35:05.251Z,99.90
2022-09-04T00:37:38.082Z,99.90
2022-09-04T00:40:10.747Z,99.90
2022-09-04T00:43:15.056Z,99.90
2022-09-04T00:46:07.999Z,99.90
2022-09-04T00:49:11.458Z,99.90
2022-09-04T00:51:50.281Z,99.90
2022-09-04T00:54:42.786Z,99.90
2022-09-04T00:57:41.699Z,99.90
2022-09-04T01:00:37.604Z,99.90
2022-09-04T01:03:33.173Z,99.90
2022-09-04T01:06:17.353Z,99.90
2022-09-04T01:09:22.018Z,99.90
2022-09-04T01:12:02.533Z,99.90
2022-09-04T01:14:40.166Z,99.90
2022-09-04T01:17:17.241Z,99.90
2022-09-04T01:19:55.436Z,99.90
2022-09-04T01:22:41.199Z,99.90
2022-09-04T01:25:26.745Z,99.90
2022-09-04T01:28:03.453Z,99.90
2022-09-04T01:30:35.452Z,99.90
2022-09-04T01:33:11.230Z,99.90
2022-09-04T01:35:45.237Z,99.90
2022-09-04T01:38:18.176Z,99.90
2022-09-04T01:40:52.516Z,99.90
2022-09-04T01:43:23.117Z,99.90
2022-09-04T01:46:11.507Z,99.90
2022-09-04T01:48:45.674Z,99.90
2022-09-04T01:51:22.272Z,99.90
2022-09-04T01:54:07.865Z,99.90
2022-09-04T01:56:45.238Z,99.90
2022-09-04T01:59:26.397Z,99.90
2022-09-04T02:01:59.282Z,99.90
2022-09-04T02:04:32.059Z,99.90
2022-09-04T02:07:11.001Z,99.90
2022-09-04T02:09:49.853Z,99.90
2022-09-04T02:12:36.022Z,99.90
2022-09-04T02:15:13.436Z,99.90
2022-09-04T02:17:46.707Z,99.90
2022-09-04T02:20:24.891Z,99.90
2022-09-04T02:23:05.204Z,99.90
2022-09-04T02:25:40.264Z,99.90
2022-09-04T02:28:23.986Z,99.90
2022-09-04T02:31:00.197Z,99.90
2022-09-04T02:33:35.456Z,99.90
2022-09-04T02:36:08.448Z,99.90
2022-09-04T02:38:47.296Z,99.90
2022-09-04T02:41:24.110Z,99.90
2022-09-04T02:44:25.306Z,99.90
2022-09-04T02:47:05.936Z,99.90
2022-09-04T02:49:40.904Z,99.90
2022-09-04T02:52:19.878Z,99.90
2022-09-04T02:55:01.621Z,99.90
2022-09-04T02:57:40.387Z,99.90
2022-09-04T03:00:14.976Z,99.90
2022-09-04T03:02:52.646Z,99.90
2022-09-04T03:05:22.564Z,99.90
2022-09-04T03:07:59.469Z,99.90
2022-09-04T03:10:31.776Z,99.90
2022-09-04T03:13:05.977Z,99.90
2022-09-04T03:15:40.736Z,99.90
2022-09-04T03:18:17.786Z,99.90
2022-09-04T03:20:52.286Z,99.90
2022-09-04T03:23:23.539Z,99.90
2022-09-04T03:26:19.422Z,99.90
2022-09-04T03:29:01.993Z,99.90
2022-09-04T03:31:35.965Z,99.90
2022-09-04T03:34:31.906Z,99.90
2022-09-04T03:37:22.858Z,99.90
2022-09-04T03:40:02.969Z,99.90
2022-09-04T03:42:42.133Z,99.90
2022-09-04T03:45:20.832Z,99.90
2022-09-04T03:48:06.011Z,99.90
2022-09-04T03:50:45.245Z,99.90
2022-09-04T03:53:19.881Z,99.90
2022-09-04T03:56:21.453Z,99.90
2022-09-04T03:59:01.308Z,99.90
2022-09-04T04:01:41.541Z,99.90
2022-09-04T04:04:34.237Z,99.90
2022-09-04T04:07:12.434Z,99.90
2022-09-04T04:09:53.297Z,99.90
2022-09-04T04:12:43.600Z,99.90
2022-09-04T04:15:33.752Z,99.90
2022-09-04T04:18:22.752Z,99.90
2022-09-04T04:21:01.181Z,99.90
2022-09-04T04:23:57.863Z,99.90
2022-09-04T04:26:40.671Z,99.90
2022-09-04T04:29:42.109Z,99.90
2022-09-04T04:32:29.551Z,99.90
2022-09-04T04:35:11.400Z,99.90
2022-09-04T04:37:51.759Z,99.90
2022-09-04T04:40:32.296Z,99.90
2022-09-04T04:43:07.405Z,99.90
2022-09-04T04:45:50.707Z,99.90
2022-09-04T04:48:54.913Z,99.90
2022-09-04T04:51:41.260Z,99.90
2022-09-04T04:54:26.577Z,99.90
2022-09-04T04:57:05.079Z,99.90
2022-09-04T04:59:41.043Z,99.90
2022-09-04T05:02:17.052Z,99.90
2022-09-04T05:04:52.339Z,99.90
2022-09-04T05:07:36.034Z,99.90
2022-09-04T05:10:12.953Z,99.90
2022-09-04T05:12:55.619Z,99.90
2022-09-04T05:15:30.058Z,99.90
2022-09-04T05:18:04.509Z,99.90
2022-09-04T05:20:42.138Z,99.90
2022-09-04T05:23:24.941Z,99.90
2022-09-04T05:26:03.939Z,99.90
2022-09-04T05:28:41.434Z,99.90
2022-09-04T05:31:18.006Z,99.90
2022-09-04T05:33:55.104Z,96.70
2022-09-04T05:36:33.753Z,89.90
2022-09-04T05:39:10.582Z,91.40
2022-09-04T05:41:52.101Z,87.50
2022-09-04T05:44:46.725Z,85.90
2022-09-04T05:47:28.625Z,84.20
2022-09-04T05:50:12.980Z,85.00
2022-09-04T05:53:02.035Z,87.50
2022-09-04T05:55:54.484Z,80.80
2022-09-04T05:58:43.859Z,82.80
2022-09-04T06:01:27.733Z,83.50
2022-09-04T06:04:30.270Z,83.80
2022-09-04T06:07:06.409Z,81.90
2022-09-04T06:09:47.067Z,82.50
2022-09-04T06:12:30.716Z,81.70
2022-09-04T06:15:14.912Z,81.90
2022-09-04T06:18:00.625Z,80.30
2022-09-04T06:20:59.047Z,78.30
2022-09-04T06:23:43.397Z,77.40
2022-09-04T06:26:29.605Z,77.00
2022-09-04T06:29:15.745Z,79.50
2022-09-04T06:32:08.869Z,80.00
2022-09-04T06:35:00.894Z,77.40
2022-09-04T06:37:38.363Z,76.00
2022-09-04T06:40:21.889Z,75.00
2022-09-04T06:43:07.016Z,73.40
2022-09-04T06:45:48.369Z,75.00
2022-09-04T06:48:28.926Z,73.70
2022-09-04T06:51:08.072Z,71.70
2022-09-04T06:53:42.576Z,74.20
2022-09-04T06:56:35.431Z,72.90
2022-09-04T06:59:35.061Z,72.90
2022-09-04T07:02:14.030Z,72.40
2022-09-04T07:04:53.241Z,74.20
2022-09-04T07:07:31.329Z,72.00
2022-09-04T07:10:03.606Z,70.50
2022-09-04T07:12:56.431Z,70.00
2022-09-04T07:15:41.941Z,68.40
2022-09-04T07:18:22.014Z,65.60
2022-09-04T07:21:03.035Z,65.90
2022-09-04T07:23:41.201Z,62.70
2022-09-04T07:26:20.477Z,65.50
2022-09-04T07:29:27.872Z,64.00
2022-09-04T07:32:01.700Z,62.90
2022-09-04T07:34:38.828Z,63.20
2022-09-04T07:37:14.830Z,65.50
2022-09-04T07:39:50.143Z,64.40
2022-09-04T07:42:22.483Z,65.10
2022-09-04T07:45:05.946Z,63.70
2022-09-04T07:47:40.467Z,64.30
2022-09-04T07:50:11.845Z,63.20
2022-09-04T07:52:54.697Z,62.30
2022-09-04T07:55:36.399Z,63.00
2022-09-04T07:58:28.767Z,63.30
2022-09-04T08:01:19.493Z,61.70
2022-09-04T08:04:06.375Z,65.20
2022-09-04T08:06:41.574Z,63.70
2022-09-04T08:09:37.303Z,62.70
2022-09-04T08:12:53.276Z,59.70
2022-09-04T08:15:31.097Z,61.50
2022-09-04T08:18:19.980Z,61.60
2022-09-04T08:20:56.714Z,59.40
2022-09-04T08:23:41.511Z,60.10
2022-09-04T08:26:17.897Z,58.60
2022-09-04T08:29:03.792Z,58.60
2022-09-04T08:31:37.256Z,57.90
2022-09-04T08:34:30.402Z,60.30
2022-09-04T08:37:11.329Z,59.60
2022-09-04T08:39:47.544Z,60.50
2022-09-04T08:42:54.067Z,59.70
2022-09-04T08:45:51.541Z,57.20
2022-09-04T08:48:56.680Z,56.10
2022-09-04T08:52:00.092Z,59.40
2022-09-04T08:55:00.624Z,60.00
2022-09-04T08:58:16.189Z,57.00
2022-09-04T09:01:10.607Z,55.90
2022-09-04T09:04:14.933Z,54.90
2022-09-04T09:07:32.844Z,53.70
2022-09-04T09:10:34.976Z,52.20
2022-09-04T09:13:33.567Z,54.90
2022-09-04T09:16:30.328Z,59.40
2022-09-04T09:19:19.486Z,56.30
2022-09-04T09:21:56.825Z,56.70
2022-09-04T09:25:11.248Z,55.00
2022-09-04T09:28:18.414Z,55.20
2022-09-04T09:31:12.327Z,55.30
2022-09-04T09:34:11.441Z,55.00
2022-09-04T09:37:03.316Z,55.00
2022-09-04T09:40:04.376Z,53.00
2022-09-04T09:42:51.904Z,55.10
2022-09-04T09:46:03.295Z,55.10
2022-09-04T09:49:00.899Z,53.80
2022-09-04T09:52:13.912Z,54.20
2022-09-04T09:55:19.785Z,54.20
2022-09-04T09:58:35.245Z,51.40
2022-09-04T10:01:19.801Z,50.50
2022-09-04T10:04:22.325Z,51.90
2022-09-04T10:07:36.964Z,50.50
2022-09-04T10:10:32.813Z,49.00
2022-09-04T10:13:16.598Z,49.60
2022-09-04T10:16:24.609Z,50.20
2022-09-04T10:19:18.098Z,50.80
2022-09-04T10:22:15.586Z,49.90
2022-09-04T10:25:19.081Z,51.60
2022-09-04T10:28:21.937Z,49.80
2022-09-04T10:31:13.909Z,49.40
2022-09-04T10:34:00.992Z,47.90
2022-09-04T10:36:40.460Z,48.30
2022-09-04T10:39:40.732Z,49.20
2022-09-04T10:42:19.839Z,50.10
2022-09-04T10:45:17.676Z,48.60
2022-09-04T10:48:15.273Z,47.90
2022-09-04T10:51:01.863Z,47.30
2022-09-04T10:54:04.243Z,49.60
2022-09-04T10:56:45.088Z,47.80
2022-09-04T10:59:46.562Z,46.90
2022-09-04T11:02:47.289Z,47.10
2022-09-04T11:05:26.646Z,44.20
2022-09-04T11:08:19.535Z,46.90
2022-09-04T11:11:15.202Z,48.20
2022-09-04T11:14:03.646Z,48.00
2022-09-04T11:16:52.698Z,47.10
2022-09-04T11:19:48.572Z,46.80
2022-09-04T11:22:44.438Z,46.90
2022-09-04T11:26:13.945Z,48.00
2022-09-04T11:29:22.813Z,48.00
2022-09-04T11:32:21.148Z,46.40
2022-09-04T11:35:19.450Z,44.90
2022-09-04T11:38:04.244Z,44.20
2022-09-04T11:41:15.550Z,43.40
2022-09-04T11:44:12.724Z,44.70
2022-09-04T11:47:01.727Z,44.30
2022-09-04T11:50:05.337Z,45.00
2022-09-04T11:52:50.642Z,44.10
2022-09-04T11:55:35.278Z,43.80
2022-09-04T11:58:28.520Z,42.60
2022-09-04T12:01:04.016Z,42.60
2022-09-04T12:04:07.313Z,42.40
2022-09-04T12:06:46.213Z,44.30
2022-09-04T12:09:51.379Z,43.90
2022-09-04T12:12:49.565Z,43.40
2022-09-04T12:15:32.532Z,43.30
2022-09-04T12:18:33.616Z,43.20
2022-09-04T12:21:37.734Z,42.40
2022-09-04T12:24:48.002Z,43.20
2022-09-04T12:27:39.086Z,43.90
2022-09-04T12:30:15.762Z,44.00
2022-09-04T12:33:22.344Z,42.60
2022-09-04T12:36:22.036Z,42.10
2022-09-04T12:39:29.988Z,42.00
2022-09-04T12:42:04.507Z,41.90
2022-09-04T12:44:44.342Z,41.40
2022-09-04T12:47:28.380Z,42.20
2022-09-04T12:50:18.955Z,41.60
2022-09-04T12:53:19.141Z,42.40
2022-09-04T12:56:00.981Z,42.40
2022-09-04T12:58:50.273Z,41.80
2022-09-04T13:01:32.141Z,41.70
2022-09-04T13:04:12.761Z,42.90
2022-09-04T13:06:53.919Z,42.40
2022-09-04T13:09:31.173Z,43.30
2022-09-04T13:12:12.164Z,42.20
2022-09-04T13:15:04.886Z,41.80
2022-09-04T13:17:44.908Z,41.90
2022-09-04T13:20:20.862Z,41.70
2022-09-04T13:23:04.407Z,42.80
2022-09-04T13:25:42.230Z,41.00
2022-09-04T13:28:20.835Z,41.50
2022-09-04T13:31:00.048Z,42.00
2022-09-04T13:33:41.946Z,41.30
2022-09-04T13:36:28.095Z,41.20
2022-09-04T13:39:28.172Z,41.40
2022-09-04T13:42:17.816Z,41.40
2022-09-04T13:45:06.539Z,41.60
2022-09-04T13:47:47.105Z,41.90
2022-09-04T13:50:25.759Z,42.80
2022-09-04T13:52:59.472Z,44.20
2022-09-04T13:55:32.068Z,42.70
2022-09-04T13:58:10.869Z,42.70
2022-09-04T14:00:45.776Z,45.50
2022-09-04T14:03:25.104Z,45.40
2022-09-04T14:05:53.900Z,45.90
2022-09-04T14:08:23.416Z,46.10
2022-09-04T14:11:09.097Z,44.20
2022-09-04T14:13:52.553Z,44.10
2022-09-04T14:16:24.030Z,43.80
2022-09-04T14:19:17.294Z,44.30
2022-09-04T14:22:02.404Z,44.00
2022-09-04T14:24:38.433Z,44.10
2022-09-04T14:27:15.066Z,43.90
2022-09-04T14:29:55.695Z,43.40
2022-09-04T14:32:32.170Z,42.70
2022-09-04T14:35:10.368Z,42.00
2022-09-04T14:37:55.058Z,42.10
2022-09-04T14:40:28.455Z,41.00
2022-09-04T14:43:07.039Z,40.80
2022-09-04T14:45:59.869Z,40.60
2022-09-04T14:48:29.013Z,41.90
2022-09-04T14:51:00.084Z,40.90
2022-09-04T14:53:31.737Z,41.30
2022-09-04T14:56:21.212Z,42.30
2022-09-04T14:58:55.536Z,41.80
2022-09-04T15:01:24.952Z,42.20
2022-09-04T15:03:58.549Z,43.00
2022-09-04T15:06:32.915Z,41.90
2022-09-04T15:09:23.776Z,43.00
2022-09-04T15:12:21.066Z,43.60
2022-09-04T15:14:50.372Z,44.30
2022-09-04T15:17:28.340Z,44.00
2022-09-04T15:20:01.524Z,44.10
2022-09-04T15:22:37.508Z,42.80
2022-09-04T15:25:09.092Z,43.40
2022-09-04T15:27:47.381Z,43.40
2022-09-04T15:30:22.583Z,44.50
2022-09-04T15:32:51.588Z,45.80
2022-09-04T15:35:24.036Z,45.20
2022-09-04T15:38:05.972Z,45.50
2022-09-04T15:40:38.938Z,45.90
2022-09-04T15:43:18.507Z,46.50
2022-09-04T15:45:55.023Z,47.20
2022-09-04T15:48:31.204Z,46.80
2022-09-04T15:51:05.489Z,45.60
2022-09-04T15:53:35.699Z,45.70
2022-09-04T15:56:09.374Z,43.80
2022-09-04T15:58:49.262Z,42.40
2022-09-04T16:01:23.726Z,41.50
2022-09-04T16:04:07.176Z,41.30
2022-09-04T16:06:43.586Z,42.00
2022-09-04T16:09:21.529Z,42.60
2022-09-04T16:11:59.708Z,42.10
2022-09-04T16:14:31.543Z,42.40
2022-09-04T16:17:03.297Z,41.50
2022-09-04T16:19:37.014Z,42.30
2022-09-04T16:22:11.471Z,41.90
2022-09-04T16:24:44.719Z,41.90
2022-09-04T16:27:15.165Z,42.60
2022-09-04T16:29:48.761Z,42.50
2022-09-04T16:32:23.633Z,42.20
2022-09-04T16:34:56.328Z,42.50
2022-09-04T16:37:30.969Z,42.80
2022-09-04T16:40:06.743Z,42.60
2022-09-04T16:42:42.293Z,44.00
2022-09-04T16:45:14.955Z,43.80
2022-09-04T16:47:48.438Z,44.60
2022-09-04T16:50:24.838Z,45.40
2022-09-04T16:53:13.487Z,45.60
2022-09-04T16:55:48.010Z,45.40
2022-09-04T16:58:50.079Z,45.40
2022-09-04T17:01:23.051Z,46.00
2022-09-04T17:04:13.355Z,45.80
2022-09-04T17:06:56.316Z,45.60
2022-09-04T17:09:30.130Z,44.80
2022-09-04T17:12:06.968Z,46.40
2022-09-04T17:14:39.715Z,49.50
2022-09-04T17:17:30.574Z,55.40
2022-09-04T17:20:10.381Z,55.10
2022-09-04T17:28:59.461Z,56.10
2022-09-04T17:29:10.495Z,56.50
2022-09-04T17:29:11.492Z,56.90
2022-09-04T17:31:41.197Z,57.10
2022-09-04T17:40:16.403Z,57.40
2022-09-04T17:40:48.715Z,56.70
2022-09-04T17:40:48.836Z,57.90
2022-09-04T17:43:24.382Z,58.60
2022-09-04T17:46:06.537Z,59.20
2022-09-04T17:48:41.293Z,57.90
2022-09-04T17:51:15.522Z,58.60
2022-09-04T17:53:51.505Z,58.10
2022-09-04T17:56:24.182Z,57.40
2022-09-04T17:58:58.724Z,58.10
2022-09-04T18:01:31.989Z,58.80
2022-09-04T18:04:21.698Z,59.80
2022-09-04T18:06:55.652Z,60.80
2022-09-04T18:09:31.890Z,61.10
2022-09-04T18:12:09.285Z,61.50
2022-09-04T18:14:45.249Z,62.00
2022-09-04T18:17:20.950Z,62.00
2022-09-04T18:19:50.300Z,62.70
2022-09-04T18:22:31.904Z,63.00
2022-09-04T18:25:16.074Z,63.50
2022-09-04T18:28:09.642Z,64.10
2022-09-04T18:36:08.380Z,63.70
2022-09-04T18:37:17.229Z,63.40
2022-09-04T18:37:19.450Z,63.30
2022-09-04T18:39:36.375Z,63.50
2022-09-04T18:50:25.839Z,63.30
2022-09-04T18:50:28.384Z,62.70
2022-09-04T18:50:45.746Z,62.40
2022-09-04T18:53:53.757Z,62.10
2022-09-04T18:56:27.410Z,62.30
2022-09-04T18:59:03.081Z,62.60
2022-09-04T19:01:40.885Z,62.40
2022-09-04T19:04:40.790Z,62.80
2022-09-04T19:07:13.098Z,62.40
2022-09-04T19:09:56.367Z,62.80
2022-09-04T19:12:35.732Z,62.70
2022-09-04T19:15:36.704Z,62.60
2022-09-04T19:18:13.188Z,63.00
2022-09-04T19:20:48.119Z,62.70
2022-09-04T19:23:24.058Z,62.80
2022-09-04T19:25:55.214Z,63.10
2022-09-04T19:28:27.077Z,63.00
2022-09-04T19:31:01.309Z,62.70
2022-09-04T19:33:38.974Z,63.00
2022-09-04T19:36:13.659Z,62.60
2022-09-04T19:45:55.827Z,62.60
2022-09-04T19:46:05.542Z,62.40
2022-09-04T19:46:09.034Z,62.20
2022-09-04T19:47:43.006Z,62.40
2022-09-04T19:53:21.408Z,62.30
2022-09-04T19:53:37.680Z,62.50
2022-09-04T19:56:20.101Z,62.40
2022-09-04T19:58:54.126Z,62.60
2022-09-04T20:01:26.943Z,62.50
2022-09-04T20:04:00.720Z,62.40
2022-09-04T20:06:32.633Z,62.50
2022-09-04T20:09:08.176Z,62.70
2022-09-04T20:11:40.666Z,62.40
2022-09-04T20:14:20.252Z,62.00
2022-09-04T20:17:02.227Z,61.90
2022-09-04T20:19:38.723Z,61.70
2022-09-04T20:22:15.361Z,61.60
2022-09-04T20:25:01.153Z,61.90
2022-09-04T20:27:35.768Z,62.10
2022-09-04T20:30:08.229Z,62.20
2022-09-04T20:32:43.661Z,62.50
2022-09-04T20:35:33.105Z,62.60
2022-09-04T20:38:12.493Z,62.40
2022-09-04T20:40:43.221Z,62.00
2022-09-04T20:43:22.577Z,62.30
2022-09-04T20:48:43.308Z,62.20
2022-09-04T20:52:58.596Z,62.60
2022-09-04T20:52:59.018Z,62.70
2022-09-04T20:55:19.607Z,63.00
2022-09-04T21:03:10.061Z,64.60
2022-09-04T21:03:18.288Z,64.60
2022-09-04T21:04:08.690Z,65.00
2022-09-04T21:06:44.868Z,64.80
2022-09-04T21:09:42.284Z,65.00
2022-09-04T21:12:31.258Z,65.20
2022-09-04T21:15:10.181Z,65.10
2022-09-04T21:18:00.591Z,65.20
2022-09-04T21:21:00.137Z,65.50
2022-09-04T21:24:12.375Z,65.60
2022-09-04T21:27:08.806Z,65.30
2022-09-04T21:30:12.113Z,67.50
2022-09-04T21:32:49.900Z,70.00
2022-09-04T21:35:23.441Z,71.80
2022-09-04T21:38:00.001Z,73.20
2022-09-04T21:41:01.437Z,74.10
2022-09-04T21:43:53.521Z,74.30
2022-09-04T21:46:52.542Z,74.70
2022-09-04T21:49:52.559Z,75.30
2022-09-04T21:52:45.987Z,74.50
2022-09-04T21:57:43.077Z,74.70
2022-09-04T22:02:35.694Z,74.80
2022-09-04T22:02:40.141Z,76.10
2022-09-04T22:04:47.422Z,76.50
2022-09-04T22:10:39.904Z,75.80
2022-09-04T22:13:33.775Z,76.50
2022-09-04T22:13:50.422Z,75.10
2022-09-04T22:16:41.876Z,76.10
2022-09-04T22:19:25.303Z,75.90
2022-09-04T22:22:03.983Z,76.30
2022-09-04T22:25:07.274Z,74.60
2022-09-04T22:28:08.805Z,74.90
2022-09-04T22:30:54.277Z,76.40
2022-09-04T22:34:15.078Z,77.00
2022-09-04T22:37:00.497Z,78.00
2022-09-04T22:39:55.206Z,79.00
2022-09-04T22:42:48.932Z,78.50
2022-09-04T22:45:43.831Z,77.80
2022-09-04T22:48:44.030Z,78.10
2022-09-04T22:51:29.981Z,79.00
2022-09-04T22:54:18.706Z,80.50
2022-09-04T22:56:54.211Z,80.50
2022-09-04T22:59:53.087Z,81.30
2022-09-04T23:03:06.655Z,82.20
2022-09-04T23:06:29.420Z,81.80
2022-09-04T23:13:44.080Z,81.80
2022-09-04T23:13:58.087Z,81.70
2022-09-04T23:15:08.024Z,81.10
2022-09-04T23:19:39.141Z,81.80
2022-09-04T23:26:33.282Z,81.40
2022-09-04T23:26:50.541Z,81.00
2022-09-04T23:27:28.276Z,80.60
2022-09-04T23:30:26.410Z,79.40
2022-09-04T23:33:38.492Z,80.40
2022-09-04T23:36:39.938Z,81.50
2022-09-04T23:39:29.806Z,81.00
2022-09-04T23:42:11.549Z,81.60
2022-09-04T23:45:08.786Z,82.40
2022-09-04T23:47:52.222Z,83.20
2022-09-04T23:50:32.729Z,83.80
2022-09-04T23:53:15.521Z,84.60
2022-09-04T23:55:56.296Z,84.30
2022-09-04T23:58:58.111Z,85.20
